Aérodrome :
LOGIN :

S'inscrire | Disclaimer

   EN    FR    IT 

 










Légende :    VFR   VFR Marginal   IFR   IFR Intensif   IFR Très Intensif
Visi : 
Plafond : 
>= 8 km
>= 3000ft
5 à 8 km
1000 à 3000 ft
1500m à 5 km
500 à 1000 ft
800 à 1500m
200 à 500 ft
< 800m
< 200 ft
Symboles :   Orages  Brouillard  Fortes neiges  Fortes précipitations  Vent > 20 kt
SIGMETs :   Divers  Orages  Givrage  Turbulence  Onde Orograph.  Cendres Volcan.







- Altitude de l'aérodrome : 1213 ft
- Code IATA : SCQ


LEST - Santiago de Compostela

DERNIER METAR :
  • 221800Z 22003KT 170V270 3000 -RADZ BKN002 OVC006 11/11 Q1030 TEMPO 0800 BCFG BKN002

METARs EXPIRÉS :
  • 221730Z 21006KT 170V250 3000 -DZRA BKN002 OVC008 11/11 Q1030 TEMPO 0800 BCFG BKN002
  • 221700Z 22004KT 190V260 2500 -DZRA BKN002 OVC008 11/11 Q1030 TEMPO 0800 BCFG BKN002
  • 221634Z 23004KT 190V270 2000 -DZ BKN002 OVC007 11/11 Q1030 TEMPO 0800 BCFG BKN002
  • 221600Z 22007KT 190V300 5000 BR BKN005 OVC012 11/11 Q1030 NOSIG
  • 221530Z 23006KT 200V270 8000 BKN004 OVC009 11/11 Q1030 NOSIG

TAF TAF LEST
Valide du 22 à 18h jusqu'au 23 à 18h UTC


221700Z 2218/2318 23008KT 8000 BKN015 TX12/2314Z TN06/2306Z
TEMPO 2218/2312 3000 -RADZ BKN005
TEMPO 2218/2310 1500 -RADZ BKN002
TEMPO 2218/2310 0600 DZ VV001
TEMPO 2221/2309 0350 FG VV001
TEMPO 2221/2309 0150 FG VV001
Pas de NOTAMs connus pour ce terrain.



MET'MAP, la Météo Aéronautique d'un coup d'oeil ! - Copyright ORBIFLY Décembre 2007 - Disclaimer

ORBIFLY MET'MAP TEAM :

Programmation & Développement : Alexandra Zaïnal
Conception & Développement : Baudouin d'Aumeries
Co-Programmation & Développement : Marc-Olivier Méhu
Soutien technique & logistique : Manuel Goepfert

Contact : metmap@orbifly.com




SOURCES & CREDITS :

   NOAA